createdAt,value
2022-11-08T00:01:33.432Z,83.99
2022-11-08T00:04:00.108Z,84.04
2022-11-08T00:06:45.312Z,83.41
2022-11-08T00:09:30.151Z,84.23
2022-11-08T00:12:16.823Z,85.26
2022-11-08T00:14:43.987Z,85.15
2022-11-08T00:17:10.190Z,84.20
2022-11-08T00:19:36.478Z,84.44
2022-11-08T00:22:02.805Z,83.12
2022-11-08T00:24:29.067Z,83.90
2022-11-08T00:26:55.416Z,83.97
2022-11-08T00:29:21.701Z,84.04
2022-11-08T00:31:48.148Z,84.52
2022-11-08T00:34:14.420Z,84.14
2022-11-08T00:36:40.679Z,84.21
2022-11-08T00:39:06.952Z,84.44
2022-11-08T00:41:33.211Z,85.23
2022-11-08T00:43:59.476Z,84.42
2022-11-08T00:46:25.757Z,84.70
2022-11-08T00:48:52.033Z,84.81
2022-11-08T00:51:18.297Z,85.02
2022-11-08T00:53:44.570Z,85.30
2022-11-08T00:56:10.831Z,87.46
2022-11-08T00:58:37.111Z,84.96
2022-11-08T01:01:03.412Z,85.26
2022-11-08T01:03:29.713Z,84.87
2022-11-08T01:05:56.022Z,84.49
2022-11-08T01:08:22.320Z,84.96
2022-11-08T01:10:48.594Z,85.45
2022-11-08T01:13:14.858Z,85.60
2022-11-08T01:15:41.305Z,85.91
2022-11-08T01:18:07.692Z,86.15
2022-11-08T01:20:33.955Z,86.05
2022-11-08T01:23:00.216Z,86.84
2022-11-08T01:25:26.497Z,86.50
2022-11-08T01:27:52.761Z,87.80
2022-11-08T01:30:19.032Z,85.99
2022-11-08T01:32:48.711Z,85.88
2022-11-08T01:35:14.971Z,86.35
2022-11-08T01:37:41.230Z,87.49
2022-11-08T01:40:07.511Z,87.09
2022-11-08T01:42:33.796Z,90.02
2022-11-08T01:45:00.190Z,88.38
2022-11-08T01:47:26.456Z,91.10
2022-11-08T01:49:52.730Z,90.64
2022-11-08T01:52:18.999Z,89.24
2022-11-08T01:54:45.287Z,88.62
2022-11-08T01:57:11.538Z,89.69
2022-11-08T01:59:37.815Z,89.97
2022-11-08T02:02:04.164Z,92.81
2022-11-08T02:04:30.478Z,92.31
2022-11-08T02:06:56.740Z,91.59
2022-11-08T02:09:23.034Z,90.20
2022-11-08T02:11:49.313Z,90.05
2022-11-08T02:14:15.636Z,89.93
2022-11-08T02:16:41.894Z,90.19
2022-11-08T02:19:08.156Z,89.52
2022-11-08T02:21:34.420Z,89.75
2022-11-08T02:24:00.714Z,92.55
2022-11-08T02:26:26.972Z,91.88
2022-11-08T02:28:53.251Z,91.28
2022-11-08T02:31:20.002Z,92.90
2022-11-08T02:33:46.271Z,91.59
2022-11-08T02:36:12.553Z,92.12
2022-11-08T02:38:38.824Z,91.34
2022-11-08T02:41:05.082Z,90.87
2022-11-08T02:43:31.339Z,91.73
2022-11-08T02:45:57.602Z,91.59
2022-11-08T02:48:23.868Z,92.32
2022-11-08T02:50:50.303Z,91.25
2022-11-08T02:53:16.595Z,91.08
2022-11-08T02:55:42.867Z,94.38
2022-11-08T02:58:09.147Z,91.41
2022-11-08T03:00:35.603Z,91.29
2022-11-08T03:03:01.870Z,90.72
2022-11-08T03:05:28.135Z,91.13
2022-11-08T03:07:54.538Z,91.26
2022-11-08T03:10:20.793Z,91.98
2022-11-08T03:12:47.113Z,93.34
2022-11-08T03:15:13.546Z,92.95
2022-11-08T03:17:39.848Z,93.33
2022-11-08T03:20:06.303Z,92.59
2022-11-08T03:22:32.580Z,94.71
2022-11-08T03:24:58.849Z,92.25
2022-11-08T03:27:25.114Z,92.17
2022-11-08T03:29:51.362Z,91.59
2022-11-08T03:32:17.627Z,93.14
2022-11-08T03:34:43.954Z,93.05
2022-11-08T03:37:10.206Z,91.70
2022-11-08T03:39:36.463Z,94.23
2022-11-08T03:42:06.316Z,92.48
2022-11-08T03:44:32.592Z,93.01
2022-11-08T03:46:58.895Z,96.54
2022-11-08T03:49:25.202Z,96.01
2022-11-08T03:51:51.679Z,94.82
2022-11-08T03:54:17.940Z,93.05
2022-11-08T03:56:44.232Z,93.58
2022-11-08T03:59:10.527Z,93.19
2022-11-08T04:01:36.965Z,94.21
2022-11-08T04:04:03.314Z,95.51
2022-11-08T04:06:29.585Z,94.78
2022-11-08T04:08:55.779Z,94.00
2022-11-08T04:11:40.886Z,94.34
2022-11-08T04:14:25.665Z,94.43
2022-11-08T04:16:51.961Z,93.64
2022-11-08T04:19:37.005Z,93.95
2022-11-08T04:22:03.300Z,95.39
2022-11-08T04:24:29.565Z,95.04
2022-11-08T04:26:55.879Z,94.98
2022-11-08T04:29:22.155Z,94.64
2022-11-08T04:31:48.472Z,94.28
2022-11-08T04:34:16.655Z,95.49
2022-11-08T04:36:43.218Z,95.46
2022-11-08T04:39:09.471Z,96.62
2022-11-08T04:41:35.786Z,95.12
2022-11-08T04:44:02.045Z,95.75
2022-11-08T04:46:28.379Z,95.01
2022-11-08T04:48:54.635Z,97.70
2022-11-08T04:51:20.955Z,94.94
2022-11-08T04:53:47.218Z,94.78
2022-11-08T04:56:13.482Z,95.91
2022-11-08T04:58:39.743Z,98.82
2022-11-08T05:01:06.016Z,99.17
2022-11-08T05:03:32.311Z,98.47
2022-11-08T05:05:58.563Z,97.99
2022-11-08T05:08:24.833Z,98.42
2022-11-08T05:10:51.090Z,97.27
2022-11-08T05:13:17.352Z,98.64
2022-11-08T05:15:43.536Z,96.48
2022-11-08T05:18:09.798Z,95.58
2022-11-08T05:20:54.877Z,95.74
2022-11-08T05:23:23.885Z,96.76
2022-11-08T05:25:50.175Z,96.05
2022-11-08T05:28:16.767Z,96.99
2022-11-08T05:30:43.398Z,98.17
2022-11-08T05:33:09.750Z,97.29
2022-11-08T05:35:36.086Z,97.69
2022-11-08T05:38:02.387Z,97.87
2022-11-08T05:40:33.187Z,96.60
2022-11-08T05:42:59.838Z,96.33
2022-11-08T05:45:26.098Z,96.81
2022-11-08T05:47:52.347Z,96.88
2022-11-08T05:50:19.649Z,96.61
2022-11-08T05:52:46.309Z,95.80
2022-11-08T05:55:12.503Z,96.47
2022-11-08T05:57:38.717Z,95.66
2022-11-08T06:00:05.002Z,97.30
2022-11-08T06:02:33.049Z,96.90
2022-11-08T06:04:59.467Z,96.66
2022-11-08T06:07:25.727Z,96.36
2022-11-08T06:09:51.961Z,96.69
2022-11-08T06:12:18.233Z,96.67
2022-11-08T06:14:44.436Z,98.63
2022-11-08T06:17:10.635Z,97.18
2022-11-08T06:19:36.889Z,97.08
2022-11-08T06:22:03.158Z,97.74
2022-11-08T06:24:29.459Z,96.63
2022-11-08T06:26:55.715Z,97.27
2022-11-08T06:29:21.900Z,97.28
2022-11-08T06:31:48.183Z,97.31
2022-11-08T06:34:14.474Z,97.45
2022-11-08T06:36:40.657Z,96.48
2022-11-08T06:39:06.871Z,96.64
2022-11-08T06:41:33.536Z,97.64
2022-11-08T06:43:59.803Z,97.04
2022-11-08T06:46:26.086Z,97.94
2022-11-08T06:48:52.293Z,96.35
2022-11-08T06:51:18.563Z,96.45
2022-11-08T06:53:44.859Z,95.86
2022-11-08T06:56:11.081Z,95.65
2022-11-08T06:58:37.346Z,95.25
2022-11-08T07:01:03.677Z,94.53
2022-11-08T07:03:29.944Z,94.84
2022-11-08T07:05:56.215Z,93.33
2022-11-08T07:08:24.247Z,92.68
2022-11-08T07:10:50.738Z,92.04
2022-11-08T07:13:17.464Z,91.96
2022-11-08T07:15:45.331Z,91.60
2022-11-08T07:18:11.639Z,91.14
2022-11-08T07:20:38.272Z,91.34
2022-11-08T07:23:04.566Z,90.52
2022-11-08T07:25:30.917Z,89.68
2022-11-08T07:27:57.195Z,89.16
2022-11-08T07:30:23.473Z,89.33
2022-11-08T07:32:49.792Z,89.15
2022-11-08T07:35:16.063Z,88.82
2022-11-08T07:37:42.328Z,88.36
2022-11-08T07:40:08.614Z,87.84
2022-11-08T07:43:04.663Z,88.82
2022-11-08T07:45:24.549Z,86.90
2022-11-08T07:47:50.808Z,87.39
2022-11-08T07:50:18.057Z,86.46
2022-11-08T07:52:44.382Z,86.30
2022-11-08T07:55:10.695Z,86.49
2022-11-08T07:57:36.965Z,87.00
2022-11-08T08:00:07.540Z,85.60
2022-11-08T08:02:34.294Z,85.45
2022-11-08T08:05:00.578Z,85.26
2022-11-08T08:07:26.844Z,84.89
2022-11-08T08:09:53.112Z,84.37
2022-11-08T08:12:19.405Z,83.97
2022-11-08T08:14:45.670Z,83.62
2022-11-08T08:17:11.946Z,84.61
2022-11-08T08:19:38.208Z,83.78
2022-11-08T08:22:04.518Z,84.25
2022-11-08T08:24:30.813Z,83.74
2022-11-08T08:26:57.254Z,83.28
2022-11-08T08:29:23.509Z,82.60
2022-11-08T08:31:49.774Z,82.10
2022-11-08T08:34:16.139Z,81.83
2022-11-08T08:36:43.446Z,81.84
2022-11-08T08:39:09.715Z,81.68
2022-11-08T08:41:37.514Z,81.31
2022-11-08T08:44:03.770Z,80.78
2022-11-08T08:46:30.098Z,80.53
2022-11-08T08:48:56.363Z,80.58
2022-11-08T08:51:22.639Z,79.63
2022-11-08T08:53:48.928Z,80.04
2022-11-08T08:56:15.226Z,79.51
2022-11-08T08:58:42.281Z,78.47
2022-11-08T09:03:59.198Z,77.45
2022-11-08T09:06:25.458Z,78.61
2022-11-08T09:08:51.719Z,77.55
2022-11-08T09:11:17.989Z,77.13
2022-11-08T09:13:44.277Z,76.95
2022-11-08T09:16:10.594Z,76.25
2022-11-08T09:18:37.025Z,76.40
2022-11-08T09:21:04.287Z,76.17
2022-11-08T09:23:30.602Z,77.14
2022-11-08T09:25:56.862Z,77.04
2022-11-08T09:28:26.921Z,76.64
2022-11-08T09:30:56.430Z,76.97
2022-11-08T09:33:23.008Z,75.48
2022-11-08T09:35:49.290Z,75.59
2022-11-08T09:38:17.477Z,75.47
2022-11-08T09:40:45.996Z,75.14
2022-11-08T09:43:12.453Z,74.80
2022-11-08T09:45:38.735Z,74.12
2022-11-08T09:48:05.814Z,73.63
2022-11-08T09:50:32.309Z,73.07
2022-11-08T09:52:58.612Z,73.64
2022-11-08T09:55:24.883Z,73.33
2022-11-08T09:57:51.492Z,73.40
2022-11-08T10:00:17.945Z,73.47
2022-11-08T10:02:44.190Z,71.95
2022-11-08T10:05:11.079Z,72.35
2022-11-08T10:07:37.361Z,71.23
2022-11-08T10:10:03.725Z,71.65
2022-11-08T10:12:30.202Z,70.91
2022-11-08T10:14:56.463Z,69.72
2022-11-08T10:17:24.549Z,68.98
2022-11-08T10:19:50.974Z,70.32
2022-11-08T10:22:17.868Z,68.72
2022-11-08T10:24:44.280Z,68.43
2022-11-08T10:27:10.546Z,69.38
2022-11-08T10:29:36.890Z,68.70
2022-11-08T10:32:03.142Z,68.00
2022-11-08T10:34:29.443Z,68.43
2022-11-08T10:36:55.708Z,68.87
2022-11-08T10:39:21.962Z,68.26
2022-11-08T10:41:48.279Z,67.40
2022-11-08T10:44:15.346Z,66.80
2022-11-08T10:46:41.652Z,67.60
2022-11-08T10:49:07.902Z,67.48
2022-11-08T10:51:34.191Z,66.67
2022-11-08T10:54:01.000Z,66.16
2022-11-08T10:56:27.303Z,64.54
2022-11-08T10:58:53.555Z,64.25
2022-11-08T11:01:19.910Z,64.16
2022-11-08T11:03:46.314Z,63.21
2022-11-08T11:06:12.570Z,63.49
2022-11-08T11:08:38.836Z,62.83
2022-11-08T11:11:05.284Z,60.73
2022-11-08T11:13:31.543Z,61.63
2022-11-08T11:16:03.246Z,60.37
2022-11-08T11:18:29.608Z,59.07
2022-11-08T11:20:55.887Z,58.69
2022-11-08T11:23:22.180Z,58.81
2022-11-08T11:25:48.443Z,57.55
2022-11-08T11:28:15.041Z,57.31
2022-11-08T11:30:42.091Z,56.92
2022-11-08T11:33:08.389Z,56.41
2022-11-08T11:35:34.836Z,55.70
2022-11-08T11:38:01.334Z,55.80
2022-11-08T11:40:27.673Z,56.72
2022-11-08T11:42:53.926Z,56.38
2022-11-08T11:45:20.386Z,56.09
2022-11-08T11:47:50.303Z,55.96
2022-11-08T11:50:16.691Z,55.15
2022-11-08T11:52:42.942Z,55.07
2022-11-08T11:55:09.639Z,55.04
2022-11-08T11:57:36.391Z,53.96
2022-11-08T12:00:04.736Z,53.82
2022-11-08T12:02:31.161Z,53.96
2022-11-08T12:04:57.463Z,54.40
2022-11-08T12:07:23.731Z,53.36
2022-11-08T12:09:50.004Z,53.08
2022-11-08T12:12:16.276Z,53.01
2022-11-08T12:14:42.542Z,52.78
2022-11-08T12:17:09.161Z,52.65
2022-11-08T12:19:35.427Z,53.30
2022-11-08T12:22:01.694Z,53.44
2022-11-08T12:24:28.959Z,53.27
2022-11-08T12:26:55.422Z,53.57
2022-11-08T12:29:21.921Z,52.82
2022-11-08T12:31:48.212Z,54.79
2022-11-08T12:34:14.814Z,55.26
2022-11-08T12:36:41.102Z,56.11
2022-11-08T12:39:07.363Z,56.28
2022-11-08T12:41:34.681Z,56.93
2022-11-08T12:44:00.978Z,56.86
2022-11-08T12:46:27.238Z,57.37
2022-11-08T12:48:53.596Z,58.01
2022-11-08T12:51:19.902Z,58.35
2022-11-08T12:53:48.517Z,58.51
2022-11-08T12:56:14.803Z,58.40
2022-11-08T12:58:41.071Z,58.48
2022-11-08T13:01:07.436Z,57.96
2022-11-08T13:03:33.761Z,58.20
2022-11-08T13:06:00.644Z,57.89
2022-11-08T13:08:26.912Z,58.30
2022-11-08T13:10:53.193Z,58.72
2022-11-08T13:13:19.475Z,58.67
2022-11-08T13:15:45.884Z,58.52
2022-11-08T13:18:12.139Z,58.59
2022-11-08T13:20:38.438Z,59.27
2022-11-08T13:23:04.742Z,59.07
2022-11-08T13:25:31.156Z,60.24
2022-11-08T13:27:57.559Z,60.11
2022-11-08T13:30:23.848Z,60.19
2022-11-08T13:32:54.027Z,60.29
2022-11-08T13:35:20.978Z,60.08
2022-11-08T13:37:47.244Z,60.47
2022-11-08T13:40:13.502Z,60.62
2022-11-08T13:42:39.826Z,60.97
2022-11-08T13:45:06.232Z,61.43
2022-11-08T13:47:32.484Z,62.29
2022-11-08T13:49:59.933Z,62.32
2022-11-08T13:52:26.194Z,62.85
2022-11-08T13:54:52.516Z,63.27
2022-11-08T13:57:19.105Z,63.59
2022-11-08T13:59:45.371Z,64.19
2022-11-08T14:02:11.655Z,65.22
2022-11-08T14:04:40.242Z,65.79
2022-11-08T14:07:08.460Z,65.60
2022-11-08T14:09:35.540Z,65.61
2022-11-08T14:12:04.033Z,66.24
2022-11-08T14:14:33.830Z,65.66
2022-11-08T14:17:03.431Z,65.65
2022-11-08T14:19:30.074Z,65.19
2022-11-08T14:21:56.363Z,65.23
2022-11-08T14:24:22.681Z,65.39
2022-11-08T14:26:49.114Z,65.60
2022-11-08T14:29:15.879Z,65.63
2022-11-08T14:31:42.143Z,65.88
2022-11-08T14:34:08.405Z,65.97
2022-11-08T14:36:34.671Z,66.06
2022-11-08T14:39:00.938Z,66.14
2022-11-08T14:41:27.216Z,66.37
2022-11-08T14:43:53.522Z,66.46
2022-11-08T14:46:19.968Z,66.78
2022-11-08T14:48:46.227Z,67.29
2022-11-08T14:51:13.131Z,67.87
2022-11-08T14:53:39.400Z,68.26
2022-11-08T14:56:05.671Z,68.44
2022-11-08T14:58:36.806Z,69.38
2022-11-08T15:01:06.191Z,69.49
2022-11-08T15:03:32.546Z,69.46
2022-11-08T15:05:58.876Z,69.29
2022-11-08T15:08:25.159Z,69.62
2022-11-08T15:10:51.457Z,70.45
2022-11-08T15:13:17.986Z,70.69
2022-11-08T15:15:44.574Z,70.59
2022-11-08T15:18:11.201Z,71.18
2022-11-08T15:20:37.804Z,71.41
2022-11-08T15:23:04.064Z,71.38
2022-11-08T15:25:32.403Z,71.15
2022-11-08T15:27:58.677Z,71.72
2022-11-08T15:30:25.132Z,71.60
2022-11-08T15:32:51.441Z,71.91
2022-11-08T15:35:17.708Z,71.59
2022-11-08T15:37:44.203Z,71.85
2022-11-08T15:40:10.463Z,72.42
2022-11-08T15:42:40.570Z,72.60
2022-11-08T15:45:09.502Z,72.23
2022-11-08T15:47:35.904Z,72.85
2022-11-08T15:50:02.379Z,72.87
2022-11-08T15:52:28.644Z,73.72
2022-11-08T15:55:19.889Z,73.33
2022-11-08T15:57:46.342Z,73.66
2022-11-08T16:00:12.616Z,73.46
2022-11-08T16:02:38.870Z,74.34
2022-11-08T16:05:06.132Z,75.09
2022-11-08T16:07:32.400Z,75.08
2022-11-08T16:09:58.693Z,74.59
2022-11-08T16:12:24.966Z,74.84
2022-11-08T16:14:51.965Z,75.22
2022-11-08T16:17:18.235Z,75.41
2022-11-08T16:19:44.494Z,75.07
2022-11-08T16:22:11.523Z,75.38
2022-11-08T16:24:45.443Z,75.59
2022-11-08T16:27:11.743Z,75.48
2022-11-08T16:29:38.012Z,75.46
2022-11-08T16:32:04.289Z,75.65
2022-11-08T16:34:30.543Z,75.60
2022-11-08T16:36:56.871Z,76.32
2022-11-08T16:39:23.136Z,75.94
2022-11-08T16:41:49.397Z,76.59
2022-11-08T16:44:15.923Z,76.17
2022-11-08T16:46:42.205Z,76.30
2022-11-08T16:49:08.539Z,76.28
2022-11-08T16:51:34.869Z,76.45
2022-11-08T16:54:01.136Z,75.99
2022-11-08T16:56:27.452Z,76.25
2022-11-08T16:58:53.711Z,75.97
2022-11-08T17:01:21.049Z,76.48
2022-11-08T17:03:47.356Z,76.37
2022-11-08T17:06:13.674Z,76.62
2022-11-08T17:08:39.939Z,76.39
2022-11-08T17:11:06.259Z,76.29
2022-11-08T17:13:37.522Z,76.40
2022-11-08T17:16:06.489Z,76.04
2022-11-08T17:18:32.748Z,76.82
2022-11-08T17:21:07.574Z,76.85
2022-11-08T17:23:45.331Z,76.78
2022-11-08T17:26:11.641Z,76.97
2022-11-08T17:28:39.361Z,77.72
2022-11-08T17:31:09.626Z,77.57
2022-11-08T17:33:35.929Z,77.43
2022-11-08T17:36:02.186Z,77.88
2022-11-08T17:38:28.452Z,78.46
2022-11-08T17:40:54.720Z,78.06
2022-11-08T17:43:21.220Z,78.25
2022-11-08T17:48:40.295Z,78.12
2022-11-08T17:51:06.626Z,78.20
2022-11-08T17:53:32.884Z,78.26
2022-11-08T17:55:59.151Z,78.20
2022-11-08T17:58:28.470Z,78.85
2022-11-08T18:00:54.842Z,78.35
2022-11-08T18:03:21.543Z,78.73
2022-11-08T18:05:47.922Z,78.71
2022-11-08T18:08:14.226Z,78.78
2022-11-08T18:10:40.495Z,78.78
2022-11-08T18:13:06.765Z,78.66
2022-11-08T18:15:33.026Z,78.87
2022-11-08T18:17:59.321Z,79.04
2022-11-08T18:20:25.587Z,78.97
2022-11-08T18:22:51.883Z,78.89
2022-11-08T18:25:18.150Z,79.05
2022-11-08T18:27:44.406Z,79.06
2022-11-08T18:30:10.675Z,79.15
2022-11-08T18:32:36.952Z,79.13
2022-11-08T18:35:03.244Z,78.88
2022-11-08T18:37:29.883Z,79.56
2022-11-08T18:39:56.171Z,79.13
2022-11-08T18:42:22.470Z,78.92
2022-11-08T18:44:48.723Z,78.94
2022-11-08T18:47:14.982Z,78.41
2022-11-08T18:49:41.267Z,78.75
2022-11-08T18:52:07.697Z,78.85
2022-11-08T18:54:33.983Z,78.92
2022-11-08T18:57:00.427Z,79.15
2022-11-08T18:59:26.695Z,78.71
2022-11-08T19:01:54.308Z,78.88
2022-11-08T19:04:20.615Z,79.17
2022-11-08T19:06:51.617Z,78.97
2022-11-08T19:09:20.781Z,79.25
2022-11-08T19:11:47.991Z,78.89
2022-11-08T19:14:14.254Z,78.81
2022-11-08T19:16:42.601Z,78.54
2022-11-08T19:19:08.927Z,79.23
2022-11-08T19:21:35.293Z,78.67
2022-11-08T19:24:02.177Z,78.78
2022-11-08T19:26:29.118Z,78.14
2022-11-08T19:28:55.567Z,78.64
2022-11-08T19:31:21.931Z,78.29
2022-11-08T19:36:43.520Z,77.89
2022-11-08T19:39:10.727Z,78.00
2022-11-08T19:41:36.926Z,78.01
2022-11-08T19:44:03.271Z,77.81
2022-11-08T19:46:29.975Z,77.92
2022-11-08T19:48:56.530Z,77.41
2022-11-08T19:51:22.781Z,77.83
2022-11-08T19:53:49.199Z,77.49
2022-11-08T19:56:15.479Z,77.61
2022-11-08T19:58:41.960Z,77.43
2022-11-08T20:01:08.254Z,77.50
2022-11-08T20:03:34.685Z,77.58
2022-11-08T20:06:00.949Z,77.48
2022-11-08T20:08:28.754Z,77.74
2022-11-08T20:10:55.033Z,77.39
2022-11-08T20:13:21.325Z,77.05
2022-11-08T20:15:47.601Z,77.41
2022-11-08T20:18:14.048Z,77.07
2022-11-08T20:20:40.374Z,76.67
2022-11-08T20:23:06.719Z,76.47
2022-11-08T20:25:34.165Z,76.53
2022-11-08T20:28:00.419Z,76.29
2022-11-08T20:30:26.703Z,76.68
2022-11-08T20:32:52.958Z,76.70
2022-11-08T20:35:23.350Z,77.00
2022-11-08T20:37:49.959Z,76.93
2022-11-08T20:40:16.392Z,76.91
2022-11-08T20:42:42.643Z,76.90
2022-11-08T20:45:14.566Z,77.20
2022-11-08T20:47:41.295Z,77.07
2022-11-08T20:50:07.548Z,77.08
2022-11-08T20:52:33.965Z,77.05
2022-11-08T20:55:00.219Z,77.21
2022-11-08T20:57:26.483Z,77.28
2022-11-08T20:59:53.721Z,77.32
2022-11-08T21:02:20.021Z,77.41
2022-11-08T21:04:46.325Z,77.65
2022-11-08T21:08:01.220Z,77.50
2022-11-08T21:10:19.707Z,77.49
2022-11-08T21:12:45.200Z,77.84
2022-11-08T21:15:12.255Z,77.90
2022-11-08T21:17:38.503Z,78.08
2022-11-08T21:20:08.059Z,78.10
2022-11-08T21:22:34.321Z,78.17
2022-11-08T21:25:00.579Z,78.33
2022-11-08T21:27:29.751Z,78.18
2022-11-08T21:29:56.414Z,78.67
2022-11-08T21:32:22.711Z,78.21
2022-11-08T21:34:48.996Z,78.47
2022-11-08T21:37:15.320Z,77.70
2022-11-08T21:39:41.963Z,77.85
2022-11-08T21:42:08.266Z,77.78
2022-11-08T21:44:37.309Z,77.76
2022-11-08T21:47:03.647Z,78.17
2022-11-08T21:49:29.917Z,78.11
2022-11-08T21:51:56.245Z,78.36
2022-11-08T21:54:22.578Z,78.76
2022-11-08T21:56:48.845Z,78.15
2022-11-08T21:59:15.103Z,78.53
2022-11-08T22:01:41.426Z,78.14
2022-11-08T22:04:08.200Z,77.89
2022-11-08T22:06:36.137Z,77.82
2022-11-08T22:09:02.494Z,78.02
2022-11-08T22:11:28.917Z,78.09
2022-11-08T22:13:55.189Z,78.76
2022-11-08T22:16:21.490Z,78.47
2022-11-08T22:19:04.109Z,78.73
2022-11-08T22:21:40.400Z,79.02
2022-11-08T22:24:06.907Z,78.87
2022-11-08T22:26:33.231Z,79.34
2022-11-08T22:28:59.495Z,78.76
2022-11-08T22:31:25.773Z,78.67
2022-11-08T22:33:52.034Z,79.17
2022-11-08T22:36:21.316Z,78.96
2022-11-08T22:38:47.610Z,78.84
2022-11-08T22:41:13.865Z,78.88
2022-11-08T22:43:40.135Z,78.71
2022-11-08T22:46:06.416Z,79.23
2022-11-08T22:48:32.687Z,79.41
2022-11-08T22:50:59.048Z,79.21
2022-11-08T22:53:25.303Z,79.43
2022-11-08T22:55:51.610Z,79.33
2022-11-08T22:58:18.004Z,79.00
2022-11-08T23:00:44.284Z,78.65
2022-11-08T23:03:10.604Z,79.00
2022-11-08T23:08:26.945Z,78.65
2022-11-08T23:11:11.997Z,78.60
2022-11-08T23:13:56.643Z,78.79
2022-11-08T23:16:31.815Z,78.59
2022-11-08T23:19:16.900Z,78.48
2022-11-08T23:22:01.770Z,78.77
2022-11-08T23:24:28.030Z,78.80
2022-11-08T23:27:12.932Z,79.11
2022-11-08T23:29:57.751Z,78.32
2022-11-08T23:32:24.071Z,78.58
2022-11-08T23:34:50.340Z,78.61
2022-11-08T23:37:16.596Z,78.48
2022-11-08T23:40:01.570Z,78.37
2022-11-08T23:42:46.456Z,78.20
2022-11-08T23:45:12.710Z,78.38
2022-11-08T23:47:38.982Z,78.77
2022-11-08T23:50:05.236Z,78.80
2022-11-08T23:52:31.495Z,78.48
2022-11-08T23:54:57.768Z,78.70
2022-11-08T23:57:24.025Z,78.87
2022-11-08T23:59:50.275Z,78.48
